Time,TemperatureF,DewpointF,PressureIn,WindDirection,WindDirectionDegrees,WindSpeedMPH,WindSpeedGustMPH,Humidity,HourlyPrecipIn,Conditions,Clouds,dailyrainin,SoftwareType,DateUTC
2014-04-19 00:04:00,51.2,44.2,30.23,ENE,78,0.0,0.0,77,0.00,,,0.00,WeatherTracker,2014-04-19 05:04:00,
2014-04-19 00:09:00,51.1,44.1,30.24,ENE,78,0.0,0.0,77,0.00,,,0.00,WeatherTracker,2014-04-19 05:09:00,
2014-04-19 00:14:00,51.0,43.4,30.24,ENE,78,0.0,0.0,75,0.00,,,0.00,WeatherTracker,2014-04-19 05:14:00,
2014-04-19 00:19:00,50.9,43.3,30.23,ENE,77,0.0,0.0,75,0.00,,,0.00,WeatherTracker,2014-04-19 05:19:00,
2014-04-19 00:24:00,50.9,42.9,30.24,ENE,78,0.0,0.0,74,0.00,,,0.00,WeatherTracker,2014-04-19 05:24:00,
2014-04-19 00:29:00,51.1,43.5,30.24,ENE,78,0.0,1.0,75,0.00,,,0.00,WeatherTracker,2014-04-19 05:29:00,
2014-04-19 00:34:00,51.1,43.1,30.24,ENE,78,0.0,1.0,74,0.00,,,0.00,WeatherTracker,2014-04-19 05:34:00,
2014-04-19 00:37:00,51.1,43.1,30.24,ENE,78,0.0,1.0,74,0.00,,,0.00,WeatherTracker,2014-04-19 05:37:00,
2014-04-19 00:42:00,50.9,43.3,30.24,ENE,78,0.0,0.0,75,0.00,,,0.00,WeatherTracker,2014-04-19 05:42:00,
2014-04-19 00:47:00,50.8,43.2,30.24,ENE,77,0.0,0.0,75,0.00,,,0.00,WeatherTracker,2014-04-19 05:47:00,
2014-04-19 00:52:00,50.6,43.3,30.24,East,92,1.0,1.0,76,0.00,,,0.00,WeatherTracker,2014-04-19 05:52:00,
2014-04-19 00:57:00,50.6,43.3,30.23,East,91,0.0,1.0,76,0.00,,,0.00,WeatherTracker,2014-04-19 05:57:00,
2014-04-19 01:02:00,50.4,43.1,30.24,East,92,0.0,1.0,76,0.00,,,0.00,WeatherTracker,2014-04-19 06:02:00,
2014-04-19 01:08:00,50.0,42.7,30.23,East,92,0.0,0.0,76,0.00,,,0.00,WeatherTracker,2014-04-19 06:08:00,
2014-04-19 01:13:00,49.8,43.2,30.23,East,91,0.0,0.0,78,0.00,,,0.00,WeatherTracker,2014-04-19 06:13:00,
2014-04-19 01:18:00,49.8,44.5,30.23,East,91,0.0,0.0,82,0.00,,,0.00,WeatherTracker,2014-04-19 06:18:00,
2014-04-19 01:23:00,49.6,45.0,30.24,East,91,0.0,0.0,84,0.00,,,0.00,WeatherTracker,2014-04-19 06:23:00,
2014-04-19 01:28:00,49.5,44.9,30.24,East,91,0.0,1.0,84,0.00,,,0.00,WeatherTracker,2014-04-19 06:28:00,
2014-04-19 01:33:00,49.5,45.2,30.24,East,91,0.0,1.0,85,0.00,,,0.00,WeatherTracker,2014-04-19 06:33:00,
2014-04-19 01:36:00,49.5,45.2,30.24,East,92,0.0,0.0,85,0.00,,,0.00,WeatherTracker,2014-04-19 06:36:00,
2014-04-19 01:41:00,49.2,44.6,30.24,East,92,0.0,1.0,84,0.00,,,0.00,WeatherTracker,2014-04-19 06:41:00,
2014-04-19 01:46:00,48.8,44.5,30.24,East,91,0.0,1.0,85,0.00,,,0.00,WeatherTracker,2014-04-19 06:46:00,
2014-04-19 01:51:00,48.4,44.1,30.24,East,91,0.0,0.0,85,0.00,,,0.00,WeatherTracker,2014-04-19 06:51:00,
2014-04-19 01:56:00,48.1,43.8,30.24,East,91,0.0,0.0,85,0.00,,,0.00,WeatherTracker,2014-04-19 06:56:00,
2014-04-19 02:01:00,47.9,43.3,30.24,East,92,0.0,0.0,84,0.00,,,0.00,WeatherTracker,2014-04-19 07:01:00,
2014-04-19 02:06:00,47.7,43.1,30.24,East,91,0.0,0.0,84,0.00,,,0.00,WeatherTracker,2014-04-19 07:06:00,
2014-04-19 02:12:00,47.5,42.6,30.24,East,92,0.0,0.0,83,0.00,,,0.00,WeatherTracker,2014-04-19 07:12:00,
2014-04-19 02:17:00,47.4,42.8,30.24,East,91,0.0,0.0,84,0.00,,,0.00,WeatherTracker,2014-04-19 07:17:00,
2014-04-19 02:22:00,47.5,42.6,30.24,East,91,0.0,0.0,83,0.00,,,0.00,WeatherTracker,2014-04-19 07:22:00,
2014-04-19 02:27:00,47.5,42.6,30.24,East,91,0.0,0.0,83,0.00,,,0.00,WeatherTracker,2014-04-19 07:27:00,
2014-04-19 02:32:00,48.1,42.9,30.24,East,92,0.0,0.0,82,0.00,,,0.00,WeatherTracker,2014-04-19 07:32:00,
2014-04-19 02:37:00,48.9,42.3,30.24,East,92,0.0,0.0,78,0.00,,,0.00,WeatherTracker,2014-04-19 07:37:00,
2014-04-19 02:42:00,49.8,41.9,30.24,East,90,1.0,1.0,74,0.00,,,0.00,WeatherTracker,2014-04-19 07:42:00,
2014-04-19 02:47:00,50.6,41.9,30.24,East,84,0.0,2.0,72,0.00,,,0.00,WeatherTracker,2014-04-19 07:47:00,
2014-04-19 02:52:00,50.6,41.5,30.24,East,84,0.0,2.0,71,0.00,,,0.00,WeatherTracker,2014-04-19 07:52:00,
2014-04-19 02:58:00,50.9,41.5,30.23,East,84,0.0,1.0,70,0.00,,,0.00,WeatherTracker,2014-04-19 07:58:00,
2014-04-19 03:03:00,51.0,41.2,30.24,East,84,0.0,1.0,69,0.00,,,0.00,WeatherTracker,2014-04-19 08:03:00,
2014-04-19 03:08:00,51.0,41.2,30.24,East,84,0.0,1.0,69,0.00,,,0.00,WeatherTracker,2014-04-19 08:08:00,
2014-04-19 03:13:00,51.1,41.3,30.24,East,84,1.0,1.0,69,0.00,,,0.00,WeatherTracker,2014-04-19 08:13:00,
2014-04-19 03:18:00,51.2,41.4,30.24,East,83,1.0,1.0,69,0.00,,,0.00,WeatherTracker,2014-04-19 08:18:00,
2014-04-19 03:23:00,51.0,41.2,30.24,ENE,77,0.0,1.0,69,0.00,,,0.00,WeatherTracker,2014-04-19 08:23:00,
2014-04-19 03:28:00,50.6,41.2,30.24,ENE,78,0.0,1.0,70,0.00,,,0.00,WeatherTracker,2014-04-19 08:28:00,
2014-04-19 03:33:00,50.4,41.4,30.24,ENE,77,0.0,1.0,71,0.00,,,0.00,WeatherTracker,2014-04-19 08:33:00,
2014-04-19 03:38:00,50.3,41.3,30.24,ENE,77,1.0,1.0,71,0.00,,,0.00,WeatherTracker,2014-04-19 08:38:00,
2014-04-19 03:44:00,50.2,41.5,30.24,ENE,78,0.0,1.0,72,0.00,,,0.00,WeatherTracker,2014-04-19 08:44:00,
2014-04-19 03:49:00,49.9,41.2,30.24,ENE,78,0.0,1.0,72,0.00,,,0.00,WeatherTracker,2014-04-19 08:49:00,
2014-04-19 03:54:00,49.8,41.5,30.24,ENE,78,0.0,1.0,73,0.00,,,0.00,WeatherTracker,2014-04-19 08:54:00,
2014-04-19 03:59:00,49.5,41.6,30.24,ENE,78,0.0,1.0,74,0.00,,,0.00,WeatherTracker,2014-04-19 08:59:00,
2014-04-19 04:04:00,49.3,41.4,30.24,ENE,78,0.0,1.0,74,0.00,,,0.00,WeatherTracker,2014-04-19 09:04:00,
2014-04-19 04:09:00,49.2,41.6,30.24,ENE,78,0.0,1.0,75,0.00,,,0.00,WeatherTracker,2014-04-19 09:09:00,
2014-04-19 04:14:00,49.0,41.4,30.24,ENE,78,0.0,1.0,75,0.00,,,0.00,WeatherTracker,2014-04-19 09:14:00,
2014-04-19 04:19:00,48.9,41.7,30.24,ENE,73,0.0,1.0,76,0.00,,,0.00,WeatherTracker,2014-04-19 09:19:00,
2014-04-19 04:24:00,49.0,41.8,30.24,ENE,75,0.0,1.0,76,0.00,,,0.00,WeatherTracker,2014-04-19 09:24:00,
2014-04-19 04:29:00,48.8,41.6,30.24,ENE,75,0.0,1.0,76,0.00,,,0.00,WeatherTracker,2014-04-19 09:29:00,
2014-04-19 04:35:00,48.7,41.5,30.24,ENE,75,0.0,1.0,76,0.00,,,0.00,WeatherTracker,2014-04-19 09:35:00,
2014-04-19 04:40:00,48.4,41.5,30.25,ENE,75,0.0,1.0,77,0.00,,,0.00,WeatherTracker,2014-04-19 09:40:00,
2014-04-19 04:45:00,48.2,41.7,30.25,ENE,75,0.0,1.0,78,0.00,,,0.00,WeatherTracker,2014-04-19 09:45:00,
2014-04-19 04:50:00,48.1,41.6,30.25,ENE,68,0.0,1.0,78,0.00,,,0.00,WeatherTracker,2014-04-19 09:50:00,
2014-04-19 04:55:00,48.0,41.5,30.24,ENE,68,0.0,1.0,78,0.00,,,0.00,WeatherTracker,2014-04-19 09:55:00,
2014-04-19 05:00:00,47.9,41.4,30.24,ENE,72,0.0,3.0,78,0.00,,,0.00,WeatherTracker,2014-04-19 10:00:00,
2014-04-19 05:05:00,47.7,41.5,30.25,ENE,72,0.0,3.0,79,0.00,,,0.00,WeatherTracker,2014-04-19 10:05:00,
2014-04-19 05:10:00,47.5,41.3,30.25,ENE,72,0.0,0.0,79,0.00,,,0.00,WeatherTracker,2014-04-19 10:10:00,
2014-04-19 05:15:00,47.3,41.1,30.25,ENE,72,0.0,1.0,79,0.00,,,0.00,WeatherTracker,2014-04-19 10:15:00,
2014-04-19 05:21:00,47.1,41.3,30.25,ENE,74,0.0,1.0,80,0.00,,,0.00,WeatherTracker,2014-04-19 10:21:00,
2014-04-19 05:26:00,46.9,41.1,30.25,ENE,74,0.0,1.0,80,0.00,,,0.00,WeatherTracker,2014-04-19 10:26:00,
2014-04-19 05:31:00,46.9,41.1,30.25,ENE,68,0.0,2.0,80,0.00,,,0.00,WeatherTracker,2014-04-19 10:31:00,
2014-04-19 05:36:00,46.8,41.0,30.26,ENE,68,0.0,2.0,80,0.00,,,0.00,WeatherTracker,2014-04-19 10:36:00,
2014-04-19 05:41:00,46.7,40.9,30.25,ENE,64,0.0,1.0,80,0.00,,,0.00,WeatherTracker,2014-04-19 10:41:00,
2014-04-19 05:46:00,46.7,40.9,30.26,ENE,74,0.0,1.0,80,0.00,,,0.00,WeatherTracker,2014-04-19 10:46:00,
2014-04-19 05:51:00,46.5,40.7,30.26,ENE,78,0.0,1.0,80,0.00,,,0.00,WeatherTracker,2014-04-19 10:51:00,
2014-04-19 05:56:00,46.5,40.7,30.26,ENE,78,0.0,1.0,80,0.00,,,0.00,WeatherTracker,2014-04-19 10:56:00,
2014-04-19 06:01:00,46.4,40.6,30.26,ENE,73,0.0,2.0,80,0.00,,,0.00,WeatherTracker,2014-04-19 11:01:00,
2014-04-19 06:07:00,46.4,40.6,30.26,ENE,68,0.0,2.0,80,0.00,,,0.00,WeatherTracker,2014-04-19 11:07:00,
2014-04-19 06:12:00,46.3,40.5,30.26,East,89,0.0,1.0,80,0.00,,,0.00,WeatherTracker,2014-04-19 11:12:00,
2014-04-19 06:17:00,46.2,40.1,30.26,ENE,67,1.0,1.0,79,0.00,,,0.00,WeatherTracker,2014-04-19 11:17:00,
2014-04-19 06:22:00,46.1,40.3,30.26,ENE,74,0.0,2.0,80,0.00,,,0.00,WeatherTracker,2014-04-19 11:22:00,
2014-04-19 06:27:00,45.9,40.1,30.26,ENE,73,0.0,2.0,80,0.00,,,0.00,WeatherTracker,2014-04-19 11:27:00,
2014-04-19 06:32:00,45.9,40.1,30.26,East,84,0.0,1.0,80,0.00,,,0.00,WeatherTracker,2014-04-19 11:32:00,
2014-04-19 06:37:00,45.7,39.9,30.26,East,84,0.0,1.0,80,0.00,,,0.00,WeatherTracker,2014-04-19 11:37:00,
2014-04-19 06:42:00,45.8,40.0,30.26,East,82,0.0,1.0,80,0.00,,,0.00,WeatherTracker,2014-04-19 11:42:00,
2014-04-19 06:48:00,45.9,40.1,30.27,East,81,0.0,1.0,80,0.00,,,0.00,WeatherTracker,2014-04-19 11:48:00,
2014-04-19 06:53:00,46.0,40.2,30.27,East,88,0.0,3.0,80,0.00,,,0.00,WeatherTracker,2014-04-19 11:53:00,
2014-04-19 06:58:00,46.2,40.4,30.27,East,86,0.0,3.0,80,0.00,,,0.00,WeatherTracker,2014-04-19 11:58:00,
2014-04-19 07:03:00,46.4,40.2,30.27,East,89,1.0,2.0,79,0.00,,,0.00,WeatherTracker,2014-04-19 12:03:00,
2014-04-19 07:08:00,46.7,40.5,30.27,ENE,77,0.0,2.0,79,0.00,,,0.00,WeatherTracker,2014-04-19 12:08:00,
2014-04-19 07:13:00,47.1,40.6,30.27,ENE,65,1.0,2.0,78,0.00,,,0.00,WeatherTracker,2014-04-19 12:13:00,
2014-04-19 07:18:00,47.5,40.7,30.27,East,94,0.0,2.0,77,0.00,,,0.00,WeatherTracker,2014-04-19 12:18:00,
2014-04-19 07:23:00,47.9,40.7,30.27,East,89,0.0,2.0,76,0.00,,,0.00,WeatherTracker,2014-04-19 12:23:00,
2014-04-19 07:28:00,48.3,41.1,30.27,East,86,1.0,3.0,76,0.00,,,0.00,WeatherTracker,2014-04-19 12:28:00,
2014-04-19 07:34:00,48.7,40.8,30.27,ENE,70,0.0,4.0,74,0.00,,,0.00,WeatherTracker,2014-04-19 12:34:00,
2014-04-19 07:39:00,49.2,41.3,30.27,East,81,0.0,5.0,74,0.00,,,0.00,WeatherTracker,2014-04-19 12:39:00,
2014-04-19 07:44:00,49.7,41.8,30.28,East,87,0.0,6.0,74,0.00,,,0.00,WeatherTracker,2014-04-19 12:44:00,
2014-04-19 07:49:00,50.3,42.0,30.28,East,84,4.0,6.0,73,0.00,,,0.00,WeatherTracker,2014-04-19 12:49:00,
2014-04-19 07:54:00,51.1,42.0,30.28,East,89,1.0,6.0,71,0.00,,,0.00,WeatherTracker,2014-04-19 12:54:00,
2014-04-19 07:59:00,51.8,42.3,30.28,East,80,1.0,6.0,70,0.00,,,0.00,WeatherTracker,2014-04-19 12:59:00,
2014-04-19 08:04:00,52.5,42.2,30.28,ENE,77,1.0,5.0,68,0.00,,,0.00,WeatherTracker,2014-04-19 13:04:00,
2014-04-19 08:09:00,53.0,42.7,30.28,East,91,0.0,5.0,68,0.00,,,0.00,WeatherTracker,2014-04-19 13:09:00,
2014-04-19 08:15:00,53.6,42.9,30.28,ENE,76,1.0,4.0,67,0.00,,,0.00,WeatherTracker,2014-04-19 13:15:00,
2014-04-19 08:20:00,54.1,43.4,30.28,ENE,76,1.0,4.0,67,0.00,,,0.00,WeatherTracker,2014-04-19 13:20:00,
2014-04-19 08:25:00,54.4,42.9,30.28,East,91,0.0,6.0,65,0.00,,,0.00,WeatherTracker,2014-04-19 13:25:00,
2014-04-19 08:30:00,55.1,43.1,30.28,East,89,0.0,7.0,64,0.00,,,0.00,WeatherTracker,2014-04-19 13:30:00,
2014-04-19 08:35:00,55.5,43.5,30.28,East,82,0.0,7.0,64,0.00,,,0.00,WeatherTracker,2014-04-19 13:35:00,
2014-04-19 08:40:00,56.1,44.1,30.28,East,87,1.0,5.0,64,0.00,,,0.00,WeatherTracker,2014-04-19 13:40:00,
2014-04-19 08:45:00,56.7,44.2,30.29,ESE,105,0.0,3.0,63,0.00,,,0.00,WeatherTracker,2014-04-19 13:45:00,
2014-04-19 08:50:00,57.3,44.0,30.29,ENE,66,1.0,5.0,61,0.00,,,0.00,WeatherTracker,2014-04-19 13:50:00,
2014-04-19 08:55:00,57.6,43.8,30.29,East,79,1.0,5.0,60,0.00,,,0.00,WeatherTracker,2014-04-19 13:55:00,
2014-04-19 09:00:00,58.0,44.2,30.29,East,84,3.0,4.0,60,0.00,,,0.00,WeatherTracker,2014-04-19 14:00:00,
2014-04-19 09:06:00,58.2,44.4,30.29,East,85,2.0,4.0,60,0.00,,,0.00,WeatherTracker,2014-04-19 14:06:00,
2014-04-19 09:11:00,58.6,45.2,30.29,ENE,70,1.0,4.0,61,0.00,,,0.00,WeatherTracker,2014-04-19 14:11:00,
2014-04-19 09:16:00,59.1,45.7,30.29,ENE,68,1.0,4.0,61,0.00,,,0.00,WeatherTracker,2014-04-19 14:16:00,
2014-04-19 09:21:00,59.4,45.1,30.29,ENE,67,0.0,3.0,59,0.00,,,0.00,WeatherTracker,2014-04-19 14:21:00,
2014-04-19 09:26:00,59.6,44.8,30.29,East,90,1.0,4.0,58,0.00,,,0.00,WeatherTracker,2014-04-19 14:26:00,
2014-04-19 09:31:00,60.0,45.2,30.29,ENE,70,1.0,4.0,58,0.00,,,0.00,WeatherTracker,2014-04-19 14:31:00,
2014-04-19 09:36:00,60.4,46.0,30.29,ENE,75,0.0,3.0,59,0.00,,,0.00,WeatherTracker,2014-04-19 14:36:00,
2014-04-19 09:41:00,60.5,45.6,30.29,ENE,73,1.0,4.0,58,0.00,,,0.00,WeatherTracker,2014-04-19 14:41:00,
2014-04-19 09:47:00,61.0,46.6,30.29,ENE,60,1.0,4.0,59,0.00,,,0.00,WeatherTracker,2014-04-19 14:47:00,
2014-04-19 09:52:00,61.8,46.9,30.29,SSE,160,0.0,3.0,58,0.00,,,0.00,WeatherTracker,2014-04-19 14:52:00,
2014-04-19 09:57:00,62.2,46.8,30.29,East,89,1.0,4.0,57,0.00,,,0.00,WeatherTracker,2014-04-19 14:57:00,
2014-04-19 10:02:00,62.8,46.9,30.29,West,274,1.0,4.0,56,0.00,,,0.00,WeatherTracker,2014-04-19 15:02:00,
2014-04-19 10:07:00,63.5,48.0,30.29,ENE,58,1.0,4.0,57,0.00,,,0.00,WeatherTracker,2014-04-19 15:07:00,
2014-04-19 10:12:00,63.6,46.6,30.29,ENE,70,0.0,3.0,54,0.00,,,0.00,WeatherTracker,2014-04-19 15:12:00,
2014-04-19 10:17:00,64.1,48.1,30.29,South,187,0.0,3.0,56,0.00,,,0.00,WeatherTracker,2014-04-19 15:17:00,